Climatologie pour Saint-Brevin les Pins
Jour • Résumé pour mai 15, 2017 Système :  Métrique    Anglais   Mixte
« - 1 jour
+ 1 jour »
Jour Semaine Mois Année Personnalisé
  Maximum : Minimum : Moyenne :
Température sous abri : -17.8 °C -11.2 °C -8.7 °C
Point de rosée : -17.8 °C -12.1 °C -10.7 °C
Humidité : Humidity % 59 % 79 %
Vitesse du vent : 0 km/h 0 km/h 7.4 km/h
Rafale : 0 km/h - -
Direction :- - SSW
Pression : 0 hPa 34716.7 hPa -
Précipitations : 0 mm    
Historical Graphs
 
 
Tableau de données pour mai 15, 2017
Heure Tempé Pt rosée Pression Vent Vitesse Rafale Humidité Taux pluie (/hr) Soleil
-17.8 °C -17.8 °C 0 hPa Calm     Humidity % 0 mm SolarRadiationWatts/m^2 W/m2 Conditions
00:00 -10.7 °C -11.6 °C 34726.8 hPa SSW 2.6 km/h 10.3 km/h 91 % 0 mm 0 W/m2
00:05 -10.8 °C -11.6 °C 34726.8 hPa SSW 7.7 km/h 10.3 km/h 91 % 0 mm 0 W/m2
00:10 -10.8 °C -11.5 °C 34726.8 hPa Calm   10.3 km/h 92 % 0 mm 0 W/m2
00:15 -10.8 °C -11.5 °C 34726.8 hPa Calm   10.3 km/h 92 % 0 mm 0 W/m2
00:25 -10.8 °C -11.5 °C 34740.4 hPa SSE 2.6 km/h 15.6 km/h 92 % 0 mm 0 W/m2
00:30 -10.8 °C -11.5 °C 34726.8 hPa SSE 7.7 km/h 10.3 km/h 92 % 0 mm 0 W/m2
00:40 -10.8 °C -11.5 °C 34726.8 hPa SSE 2.6 km/h 10.3 km/h 92 % 0 mm 0 W/m2
00:45 -10.8 °C -11.5 °C 34726.8 hPa Calm   7.7 km/h 92 % 0 mm 0 W/m2
00:50 -10.8 °C -11.4 °C 34726.8 hPa SSE 2.6 km/h 5.1 km/h 93 % 0 mm 0 W/m2
00:55 -10.9 °C -11.5 °C 34726.8 hPa SSE 2.6 km/h 7.7 km/h 93 % 0 mm 0 W/m2
01:00 -10.9 °C -11.6 °C 34726.8 hPa Calm   7.7 km/h 93 % 0 mm 0 W/m2
01:05 -10.9 °C -11.6 °C 34726.8 hPa Calm   7.7 km/h 93 % 0 mm 0 W/m2
01:10 -11 °C -11.6 °C 34726.8 hPa Calm   5.1 km/h 93 % 0 mm 0 W/m2
01:15 -11.1 °C -11.7 °C 34726.8 hPa SSE 5.1 km/h 10.3 km/h 93 % 0 mm 0 W/m2
01:25 -11.1 °C -11.6 °C 34726.8 hPa Calm   10.3 km/h 94 % 0 mm 0 W/m2
01:30 -11.1 °C -11.6 °C 34726.8 hPa Calm   10.3 km/h 94 % 0 mm 0 W/m2
01:35 -11.1 °C -11.6 °C 34726.8 hPa SSE 2.6 km/h 7.7 km/h 94 % 0 mm 0 W/m2
01:40 -11.1 °C -11.6 °C 34726.8 hPa Calm   7.7 km/h 94 % 0 mm 0 W/m2
01:45 -11.2 °C -11.7 °C 34726.8 hPa SSE 2.6 km/h 10.3 km/h 94 % 0 mm 0 W/m2
01:50 -11.2 °C -11.7 °C 34716.7 hPa Calm   10.3 km/h 94 % 0 mm 0 W/m2
01:55 -11.2 °C -11.7 °C 34726.8 hPa Calm   10.3 km/h 94 % 0 mm 0 W/m2
02:00 -11.2 °C -11.7 °C 34726.8 hPa Calm   10.3 km/h 94 % 0 mm 0 W/m2
02:05 -11.2 °C -11.7 °C 34726.8 hPa Calm   10.3 km/h 94 % 0 mm 0 W/m2
02:10 -11.2 °C -11.6 °C 34726.8 hPa SSE 2.6 km/h 7.7 km/h 95 % 0 mm 0 W/m2
02:20 -11.1 °C -11.5 °C 34716.7 hPa SSE 12.9 km/h 15.6 km/h 95 % 0 mm 0 W/m2
02:25 -11 °C -11.5 °C 34726.8 hPa South 10.3 km/h 15.6 km/h 94 % 0 mm 0 W/m2
02:30 -10.9 °C -11.4 °C 34726.8 hPa South 10.3 km/h 15.6 km/h 94 % 0 mm 0 W/m2
02:35 -10.8 °C -11.4 °C 34726.8 hPa South 7.7 km/h 12.9 km/h 93 % 0 mm 0 W/m2
02:40 -10.9 °C -11.5 °C 34726.8 hPa South 2.6 km/h 12.9 km/h 93 % 0 mm 0 W/m2
02:45 -10.9 °C -11.6 °C 34726.8 hPa South 5.1 km/h 15.6 km/h 92 % 0 mm 0 W/m2
02:55 -10.9 °C -11.6 °C 34726.8 hPa SSE 7.7 km/h 15.6 km/h 92 % 0 mm 0 W/m2
03:00 -10.8 °C -11.6 °C 34726.8 hPa SSE 7.7 km/h 15.6 km/h 91 % 0 mm 0 W/m2
03:05 -10.9 °C -11.7 °C 34726.8 hPa South 2.6 km/h 15.6 km/h 91 % 0 mm 0 W/m2
03:10 -10.9 °C -11.8 °C 34726.8 hPa South 10.3 km/h 15.6 km/h 90 % 0 mm 0 W/m2
03:15 -10.9 °C -11.8 °C 34726.8 hPa South 7.7 km/h 15.6 km/h 90 % 0 mm 0 W/m2
03:20 -10.9 °C -11.8 °C 34726.8 hPa South 10.3 km/h 15.6 km/h 90 % 0 mm 0 W/m2
03:25 -10.9 °C -11.9 °C 34726.8 hPa SSE 12.9 km/h 15.6 km/h 89 % 0 mm 0 W/m2
03:30 -10.9 °C -11.9 °C 34726.8 hPa SSE 7.7 km/h 15.6 km/h 89 % 0 mm 0 W/m2
03:40 -11.1 °C -12 °C 34716.7 hPa SSE 5.1 km/h 10.3 km/h 89 % 0 mm 0 W/m2
03:45 -11.1 °C -12 °C 34716.7 hPa SE 2.6 km/h 12.9 km/h 90 % 0 mm 0 W/m2
03:50 -11.1 °C -12 °C 34726.8 hPa SE 7.7 km/h 12.9 km/h 90 % 0 mm 0 W/m2
03:55 -11.1 °C -11.9 °C 34716.7 hPa SSE 10.3 km/h 12.9 km/h 90 % 0 mm 0 W/m2
04:00 -11 °C -12 °C 34716.7 hPa SSE 12.9 km/h 15.6 km/h 89 % 0 mm 0 W/m2
04:05 -11 °C -12 °C 34716.7 hPa SSE 5.1 km/h 15.6 km/h 89 % 0 mm 0 W/m2
04:10 -11.1 °C -12.1 °C 34716.7 hPa SSE 7.7 km/h 15.6 km/h 89 % 0 mm 0 W/m2
04:15 -11.1 °C -12 °C 34716.7 hPa SE 10.3 km/h 15.6 km/h 89 % 0 mm 0 W/m2
04:25 -11.1 °C -12.1 °C 34726.8 hPa SSE 10.3 km/h 15.6 km/h 88 % 0 mm 0 W/m2
04:30 -11.1 °C -12.1 °C 34726.8 hPa SSE 12.9 km/h 15.6 km/h 88 % 0 mm 0 W/m2
04:35 -11 °C -12.1 °C 34726.8 hPa SSE 10.3 km/h 15.6 km/h 88 % 0 mm 0 W/m2
04:40 -11 °C -12.1 °C 34726.8 hPa South 5.1 km/h 15.6 km/h 88 % 0 mm 0 W/m2
04:45 -11 °C -12.1 °C 34726.8 hPa SSE 7.7 km/h 15.6 km/h 88 % 0 mm 0 W/m2
04:50 -11 °C -12.1 °C 34726.8 hPa SSE 12.9 km/h 12.9 km/h 88 % 0 mm 0 W/m2
04:55 -11 °C -12.1 °C 34726.8 hPa SE 5.1 km/h 15.6 km/h 88 % 0 mm 0 W/m2
05:00 -10.9 °C -12.1 °C 34726.8 hPa SSE 7.7 km/h 15.6 km/h 88 % 0 mm 0 W/m2
05:05 -10.9 °C -11.9 °C 34726.8 hPa SSE 10.3 km/h 12.9 km/h 88 % 0 mm 0 W/m2
05:10 -10.9 °C -12.1 °C 34726.8 hPa SSE 5.1 km/h 18.2 km/h 87 % 0 mm 0 W/m2
05:15 -10.8 °C -11.9 °C 34726.8 hPa SSE 7.7 km/h 18.2 km/h 87 % 0 mm 0 W/m2
05:20 -10.7 °C -11.8 °C 34726.8 hPa SSE 5.1 km/h 18.2 km/h 87 % 0 mm 0 W/m2
05:25 -10.6 °C -11.9 °C 34726.8 hPa SSE 10.3 km/h 18.2 km/h 86 % 0 mm 0 W/m2
05:30 -10.6 °C -11.8 °C 34726.8 hPa SSE 5.1 km/h 15.6 km/h 86 % 0 mm 0 W/m2
05:35 -10.6 °C -11.9 °C 34726.8 hPa SSE 2.6 km/h 12.9 km/h 85 % 0 mm 0 W/m2
05:40 -10.5 °C -11.9 °C 34726.8 hPa Calm   12.9 km/h 85 % 0 mm 0 W/m2
05:45 -10.4 °C -11.8 °C 34716.7 hPa SE 10.3 km/h 12.9 km/h 85 % 0 mm 0 W/m2
05:55 -10.4 °C -11.9 °C 34716.7 hPa SSE 7.7 km/h 15.6 km/h 84 % 0 mm 0 W/m2
06:00 -10.4 °C -11.9 °C 34716.7 hPa SE 2.6 km/h 18.2 km/h 84 % 0 mm 0 W/m2
06:05 -10.4 °C -11.9 °C 34716.7 hPa SSE 7.7 km/h 18.2 km/h 84 % 0 mm 0 W/m2
06:10 -10.5 °C -12 °C 34716.7 hPa SSE 7.7 km/h 15.6 km/h 84 % 0 mm 0 W/m2
06:15 -10.5 °C -12 °C 34716.7 hPa SSE 7.7 km/h 15.6 km/h 84 % 0 mm 0 W/m2
06:20 -10.4 °C -11.9 °C 34716.7 hPa South 7.7 km/h 15.6 km/h 84 % 0 mm 0 W/m2
06:25 -10.4 °C -12 °C 34716.7 hPa Calm   15.6 km/h 83 % 0 mm 0 W/m2
06:30 -10.4 °C -11.9 °C 34726.8 hPa SSE 5.1 km/h 15.6 km/h 83 % 0 mm 0 W/m2
06:40 -10.4 °C -11.9 °C 34726.8 hPa Calm   12.9 km/h 83 % 0 mm 5 W/m2
06:45 -10.4 °C -11.9 °C 34726.8 hPa South 5.1 km/h 12.9 km/h 83 % 0 mm 7 W/m2
06:50 -10.3 °C -11.9 °C 34726.8 hPa Calm   10.3 km/h 83 % 0 mm 9 W/m2
06:55 -10.3 °C -11.9 °C 34726.8 hPa Calm   10.3 km/h 83 % 0 mm 11 W/m2
07:00 -10.3 °C -11.9 °C 34726.8 hPa South 7.7 km/h 10.3 km/h 83 % 0 mm 9 W/m2
07:05 -10.2 °C -11.9 °C 34726.8 hPa Calm   10.3 km/h 82 % 0 mm 5 W/m2
07:10 -10.2 °C -11.8 °C 34726.8 hPa South 2.6 km/h 10.3 km/h 83 % 0 mm 5 W/m2
07:15 -10.2 °C -11.8 °C 34740.4 hPa South 2.6 km/h 10.3 km/h 83 % 0 mm 7 W/m2
07:25 -10.2 °C -11.8 °C 34740.4 hPa South 7.7 km/h 10.3 km/h 82 % 0 mm 21 W/m2
07:30 -10.1 °C -11.8 °C 34740.4 hPa South 5.1 km/h 10.3 km/h 82 % 0 mm 25 W/m2
07:35 -10.1 °C -11.7 °C 34740.4 hPa SSE 5.1 km/h 10.3 km/h 82 % 0 mm 25 W/m2
07:40 -9.9 °C -11.8 °C 34740.4 hPa SSE 5.1 km/h 10.3 km/h 81 % 0 mm 37 W/m2
07:45 -9.9 °C -11.7 °C 34740.4 hPa SSE 5.1 km/h 10.3 km/h 81 % 0 mm 37 W/m2
07:50 -9.9 °C -11.7 °C 34750.5 hPa SSE 7.7 km/h 10.3 km/h 81 % 0 mm 37 W/m2
07:55 -9.9 °C -11.6 °C 34740.4 hPa Calm   10.3 km/h 82 % 0 mm 37 W/m2
08:00 -9.9 °C -11.6 °C 34740.4 hPa SSE 10.3 km/h 12.9 km/h 82 % 0 mm 40 W/m2
08:10 -9.8 °C -11.5 °C 34740.4 hPa SE 2.6 km/h 15.6 km/h 82 % 0 mm 86 W/m2
08:15 -9.7 °C -11.5 °C 34740.4 hPa SSE 10.3 km/h 15.6 km/h 81 % 0 mm 88 W/m2
08:20 -9.6 °C -11.4 °C 34740.4 hPa SE 5.1 km/h 18.2 km/h 80 % 0 mm 95 W/m2
08:25 -9.5 °C -11.4 °C 34740.4 hPa SE 10.3 km/h 20.8 km/h 80 % 0 mm 120 W/m2
08:30 -9.3 °C -11.4 °C 34740.4 hPa SE 7.7 km/h 20.8 km/h 79 % 0 mm 153 W/m2
08:35 -9.2 °C -11.2 °C 34750.5 hPa SSE 5.1 km/h 18.2 km/h 79 % 0 mm 195 W/m2
08:40 -9.1 °C -11.1 °C 34750.5 hPa SE 5.1 km/h 18.2 km/h 79 % 0 mm 239 W/m2
08:45 -8.8 °C -11.1 °C 34750.5 hPa South 12.9 km/h 23.3 km/h 77 % 0 mm 209 W/m2
08:55 -8.7 °C -11 °C 34750.5 hPa South 10.3 km/h 18.2 km/h 76 % 0 mm 146 W/m2
09:00 -8.7 °C -11.1 °C 34750.5 hPa SSE 7.7 km/h 23.3 km/h 76 % 0 mm 139 W/m2
09:05 -8.7 °C -11 °C 34760.7 hPa SE 5.1 km/h 23.3 km/h 76 % 0 mm 116 W/m2
09:10 -8.7 °C -11 °C 34760.7 hPa SSE 2.6 km/h 18.2 km/h 76 % 0 mm 121 W/m2
09:15 -8.6 °C -10.9 °C 34750.5 hPa SSE 10.3 km/h 15.6 km/h 76 % 0 mm 165 W/m2
09:20 -8.5 °C -10.9 °C 34760.7 hPa SE 2.6 km/h 15.6 km/h 75 % 0 mm 176 W/m2
09:25 -8.4 °C -11 °C 34750.5 hPa South 20.8 km/h 20.8 km/h 74 % 0 mm 121 W/m2
09:30 -8.4 °C -11.1 °C 34760.7 hPa South 7.7 km/h 20.8 km/h 73 % 0 mm 146 W/m2
09:40 -8.2 °C -11.2 °C 34760.7 hPa SE 7.7 km/h 23.3 km/h 71 % 0 mm 167 W/m2
09:45 -8.2 °C -11.1 °C 34750.5 hPa SSE 15.6 km/h 23.3 km/h 72 % 0 mm 172 W/m2
09:50 -8.2 °C -11 °C 34760.7 hPa SSW 18.2 km/h 23.3 km/h 72 % 0 mm 192 W/m2
09:55 -8.2 °C -10.9 °C 34750.5 hPa SSE 10.3 km/h 23.3 km/h 73 % 0 mm 237 W/m2
10:05 -8 °C -11 °C 34760.7 hPa South 18.2 km/h 23.3 km/h 71 % 0 mm 163 W/m2
10:10 -8.1 °C -11 °C 34760.7 hPa SSE 15.6 km/h 25.9 km/h 71 % 0 mm 186 W/m2
10:15 -8 °C -10.8 °C 34760.7 hPa South 7.7 km/h 25.9 km/h 72 % 0 mm 248 W/m2
10:25 -7.8 °C -10.6 °C 34760.7 hPa South 7.7 km/h 20.8 km/h 72 % 0 mm 285 W/m2
10:30 -7.7 °C -10.7 °C 34760.7 hPa SSE 18.2 km/h 23.3 km/h 71 % 0 mm 276 W/m2
10:35 -7.6 °C -10.6 °C 34760.7 hPa SSE 12.9 km/h 23.3 km/h 71 % 0 mm 294 W/m2
10:40 -7.6 °C -10.5 °C 34760.7 hPa ESE 12.9 km/h 23.3 km/h 71 % 0 mm 267 W/m2
10:45 -7.4 °C -10.6 °C 34760.7 hPa SSE 10.3 km/h 25.9 km/h 70 % 0 mm 255 W/m2
10:50 -7.4 °C -10.6 °C 34760.7 hPa SSE 7.7 km/h 25.9 km/h 70 % 0 mm 241 W/m2
10:55 -7.4 °C -10.7 °C 34760.7 hPa SSE 18.2 km/h 33.6 km/h 69 % 0 mm 232 W/m2
11:00 -7.4 °C -10.5 °C 34760.7 hPa SSE 10.3 km/h 33.6 km/h 70 % 0 mm 251 W/m2
11:05 -7.3 °C -10.7 °C 34760.7 hPa South 5.1 km/h 25.9 km/h 68 % 0 mm 283 W/m2
11:10 -7.2 °C -10.3 °C 34760.7 hPa South 10.3 km/h 23.3 km/h 70 % 0 mm 325 W/m2
11:15 -7.1 °C -10.3 °C 34760.7 hPa South 15.6 km/h 28.5 km/h 69 % 0 mm 353 W/m2
11:20 -7 °C -10.4 °C 34760.7 hPa SSE 18.2 km/h 28.5 km/h 67 % 0 mm 413 W/m2
11:25 -6.8 °C -10.4 °C 34760.7 hPa SSE 18.2 km/h 31.1 km/h 66 % 0 mm 448 W/m2
11:30 -6.7 °C -10.3 °C 34760.7 hPa SSW 18.2 km/h 38.8 km/h 66 % 0 mm 466 W/m2
11:35 -6.6 °C -10.3 °C 34760.7 hPa SSW 18.2 km/h 38.8 km/h 65 % 0 mm 494 W/m2
11:40 -6.5 °C -10.4 °C 34760.7 hPa South 15.6 km/h 33.6 km/h 64 % 0 mm 480 W/m2
11:45 -6.6 °C -10.4 °C 34760.7 hPa South 25.9 km/h 36.2 km/h 64 % 0 mm 455 W/m2
11:55 -6.4 °C -10.2 °C 34760.7 hPa SSE 15.6 km/h 38.8 km/h 65 % 0 mm 461 W/m2
12:00 -6.3 °C -10.2 °C 34760.7 hPa SSE 20.8 km/h 38.8 km/h 64 % 0 mm 461 W/m2
12:05 -6.2 °C -10.2 °C 34760.7 hPa SSW 12.9 km/h 38.8 km/h 64 % 0 mm 475 W/m2
12:10 -6.1 °C -10.2 °C 34760.7 hPa South 12.9 km/h 36.2 km/h 63 % 0 mm 478 W/m2
12:15 -6.1 °C -10.2 °C 34760.7 hPa South 20.8 km/h 38.8 km/h 63 % 0 mm 489 W/m2
12:20 -6 °C -10.1 °C 34760.7 hPa SSW 28.5 km/h 38.8 km/h 63 % 0 mm 513 W/m2
12:25 -5.9 °C -10.1 °C 34760.7 hPa SSW 25.9 km/h 41.4 km/h 62 % 0 mm 508 W/m2
12:30 -5.8 °C -10.3 °C 34760.7 hPa SSW 20.8 km/h 41.4 km/h 60 % 0 mm 527 W/m2
12:40 -5.8 °C -10.4 °C 34760.7 hPa South 15.6 km/h 46.7 km/h 59 % 0 mm 526 W/m2
12:45 -5.7 °C -10.2 °C 34760.7 hPa SW 18.2 km/h 46.7 km/h 60 % 0 mm 527 W/m2
12:50 -5.7 °C -10.2 °C 34760.7 hPa SSW 12.9 km/h 38.8 km/h 60 % 0 mm 577 W/m2
12:55 -5.4 °C -9.6 °C 34760.7 hPa SSE 23.3 km/h 36.2 km/h 63 % 0 mm 534 W/m2
13:00 -5.4 °C -9.7 °C 34774.2 hPa SW 12.9 km/h 36.2 km/h 62 % 0 mm 554 W/m2
13:05 -5.5 °C -10 °C 34774.2 hPa South 18.2 km/h 36.2 km/h 60 % 0 mm 582 W/m2
13:10 -5.4 °C -10 °C 34774.2 hPa SSW 15.6 km/h 33.6 km/h 60 % 0 mm 668 W/m2
13:15 -5.4 °C -9.6 °C 34774.2 hPa SSW 12.9 km/h 31.1 km/h 63 % 0 mm 708 W/m2
13:20 -5.5 °C -9.7 °C 34774.2 hPa South 15.6 km/h 31.1 km/h 62 % 0 mm 694 W/m2
13:25 -5.7 °C -9.7 °C 34774.2 hPa SSW 7.7 km/h 36.2 km/h 63 % 0 mm 668 W/m2
13:30 -5.5 °C -9.6 °C 34774.2 hPa SSW 23.3 km/h 38.8 km/h 63 % 0 mm 700 W/m2
13:35 -5.4 °C -9.8 °C 34774.2 hPa SSW 15.6 km/h 38.8 km/h 61 % 0 mm 793 W/m2
13:40 -5.6 °C -9.5 °C 34774.2 hPa SSW 20.8 km/h 28.5 km/h 64 % 0 mm 844 W/m2
13:45 -5.7 °C -9.7 °C 34774.2 hPa SSW 7.7 km/h 28.5 km/h 63 % 0 mm 714 W/m2
13:50 -5.7 °C -9.9 °C 34774.2 hPa South 7.7 km/h 25.9 km/h 62 % 0 mm 701 W/m2
13:55 -5.5 °C -9.2 °C 34774.2 hPa SW 12.9 km/h 25.9 km/h 66 % 0 mm 659 W/m2
14:00 -5.6 °C -9.7 °C 34774.2 hPa SW 5.1 km/h 25.9 km/h 63 % 0 mm 647 W/m2
14:05 -5.8 °C -9.7 °C 34774.2 hPa SSW 5.1 km/h 33.6 km/h 64 % 0 mm 728 W/m2
14:10 -5.6 °C -9.4 °C 34774.2 hPa SW 5.1 km/h 33.6 km/h 65 % 0 mm 932 W/m2
14:15 -5.5 °C -9.4 °C 34774.2 hPa WNW 7.7 km/h 28.5 km/h 64 % 0 mm 601 W/m2
14:20 -5.9 °C -9.6 °C 34774.2 hPa SW 18.2 km/h 31.1 km/h 66 % 0 mm 564 W/m2
14:25 -5.7 °C -9.7 °C 34774.2 hPa SW 10.3 km/h 31.1 km/h 64 % 0 mm 867 W/m2
14:30 -5.7 °C -9.9 °C 34774.2 hPa SW 18.2 km/h 33.6 km/h 62 % 0 mm 932 W/m2
14:35 -5.7 °C -10.1 °C 34774.2 hPa WSW 12.9 km/h 33.6 km/h 61 % 0 mm 626 W/m2
14:40 -5.8 °C -9.7 °C 34774.2 hPa WSW 28.5 km/h 28.5 km/h 64 % 0 mm 603 W/m2
14:45 -5.9 °C -10 °C 34774.2 hPa SSW 5.1 km/h 33.6 km/h 63 % 0 mm 550 W/m2
14:50 -5.9 °C -9.9 °C 34774.2 hPa WSW 18.2 km/h 33.6 km/h 64 % 0 mm 550 W/m2
14:55 -5.8 °C -9.7 °C 34774.2 hPa WNW 12.9 km/h 33.6 km/h 64 % 0 mm 503 W/m2
15:00 -6.1 °C -10 °C 34774.2 hPa SSW 12.9 km/h 28.5 km/h 64 % 0 mm 468 W/m2
15:05 -6.2 °C -10.1 °C 34774.2 hPa SW 2.6 km/h 25.9 km/h 64 % 0 mm 441 W/m2
15:10 -6.2 °C -9.8 °C 34774.2 hPa West 10.3 km/h 25.9 km/h 66 % 0 mm 411 W/m2
15:15 -6.3 °C -10.1 °C 34774.2 hPa SSW 5.1 km/h 28.5 km/h 65 % 0 mm 408 W/m2
15:20 -6.3 °C -9.8 °C 34774.2 hPa SW 2.6 km/h 28.5 km/h 67 % 0 mm 394 W/m2
15:25 -6.3 °C -10.2 °C 34774.2 hPa WSW 20.8 km/h 25.9 km/h 65 % 0 mm 373 W/m2
15:30 -6.5 °C -10.1 °C 34774.2 hPa NW 2.6 km/h 25.9 km/h 66 % 0 mm 367 W/m2
15:35 -6.5 °C -10.1 °C 34774.2 hPa WSW 12.9 km/h 25.9 km/h 67 % 0 mm 388 W/m2
15:40 -6.5 °C -10 °C 34774.2 hPa WNW 18.2 km/h 23.3 km/h 67 % 0 mm 401 W/m2
15:45 -6.6 °C -9.8 °C 34774.2 hPa SW 23.3 km/h 31.1 km/h 69 % 0 mm 413 W/m2
15:50 -6.6 °C -9.6 °C 34760.7 hPa WSW 18.2 km/h 31.1 km/h 71 % 0 mm 401 W/m2
15:55 -6.6 °C -9.9 °C 34760.7 hPa WSW 10.3 km/h 23.3 km/h 68 % 0 mm 383 W/m2
16:00 -6.6 °C -9.7 °C 34760.7 hPa West 12.9 km/h 23.3 km/h 70 % 0 mm 371 W/m2
16:05 -6.7 °C -10.2 °C 34760.7 hPa WSW 15.6 km/h 20.8 km/h 67 % 0 mm 369 W/m2
16:10 -6.8 °C -9.9 °C 34760.7 hPa West 20.8 km/h 28.5 km/h 70 % 0 mm 350 W/m2
16:15 -6.8 °C -10 °C 34760.7 hPa West 12.9 km/h 28.5 km/h 70 % 0 mm 330 W/m2
16:25 -7 °C -9.9 °C 34760.7 hPa WSW 28.5 km/h 33.6 km/h 72 % 0 mm 311 W/m2
16:30 -7.1 °C -9.9 °C 34760.7 hPa WSW 23.3 km/h 33.6 km/h 72 % 0 mm 294 W/m2
16:35 -7.1 °C -9.9 °C 34760.7 hPa West 5.1 km/h 28.5 km/h 73 % 0 mm 276 W/m2
16:40 -7.3 °C -10 °C 34760.7 hPa West 7.7 km/h 28.5 km/h 73 % 0 mm 262 W/m2
16:45 -7.3 °C -9.8 °C 34760.7 hPa Calm   23.3 km/h 75 % 0 mm 246 W/m2
16:50 -7.4 °C -9.9 °C 34760.7 hPa WSW 5.1 km/h 23.3 km/h 75 % 0 mm 230 W/m2
16:55 -7.4 °C -9.8 °C 34760.7 hPa West 7.7 km/h 23.3 km/h 76 % 0 mm 220 W/m2
17:00 -7.5 °C -9.9 °C 34760.7 hPa SW 10.3 km/h 25.9 km/h 76 % 0 mm 211 W/m2
17:10 -7.6 °C -9.9 °C 34750.5 hPa Calm   18.2 km/h 77 % 0 mm 211 W/m2
17:15 -7.6 °C -9.8 °C 34750.5 hPa SW 15.6 km/h 18.2 km/h 77 % 0 mm 209 W/m2
17:20 -7.4 °C -9.7 °C 34750.5 hPa West 2.6 km/h 15.6 km/h 78 % 0 mm 209 W/m2
17:25 -7.4 °C -9.7 °C 34750.5 hPa WSW 2.6 km/h 15.6 km/h 77 % 0 mm 221 W/m2
17:30 -7.4 °C -9.8 °C 34750.5 hPa West 7.7 km/h 15.6 km/h 77 % 0 mm 244 W/m2
17:35 -7.4 °C -9.7 °C 34750.5 hPa WSW 7.7 km/h 15.6 km/h 77 % 0 mm 267 W/m2
17:40 -7.4 °C -9.7 °C 34750.5 hPa West 7.7 km/h 15.6 km/h 77 % 0 mm 283 W/m2
17:45 -7.3 °C -9.7 °C 34750.5 hPa SW 2.6 km/h 15.6 km/h 76 % 0 mm 267 W/m2
17:50 -7.3 °C -9.8 °C 34750.5 hPa WSW 10.3 km/h 15.6 km/h 75 % 0 mm 253 W/m2
17:55 -7.3 °C -9.6 °C 34750.5 hPa WSW 12.9 km/h 15.6 km/h 77 % 0 mm 258 W/m2
18:00 -7.3 °C -9.8 °C 34750.5 hPa WSW 7.7 km/h 15.6 km/h 75 % 0 mm 274 W/m2
18:05 -7.4 °C -9.8 °C 34750.5 hPa West 7.7 km/h 15.6 km/h 76 % 0 mm 271 W/m2
18:10 -7.4 °C -9.7 °C 34750.5 hPa WSW 15.6 km/h 18.2 km/h 77 % 0 mm 287 W/m2
18:15 -7.4 °C -9.9 °C 34750.5 hPa WSW 12.9 km/h 18.2 km/h 75 % 0 mm 278 W/m2
18:20 -7.3 °C -9.8 °C 34750.5 hPa Calm   18.2 km/h 75 % 0 mm 265 W/m2
18:25 -7.3 °C -9.8 °C 34750.5 hPa Calm   15.6 km/h 75 % 0 mm 313 W/m2
18:30 -7.3 °C -9.8 °C 34750.5 hPa WSW 2.6 km/h 12.9 km/h 75 % 0 mm 330 W/m2
18:40 -7.3 °C -10 °C 34740.4 hPa WSW 10.3 km/h 15.6 km/h 74 % 0 mm 297 W/m2
18:45 -7.2 °C -9.7 °C 34740.4 hPa SW 12.9 km/h 12.9 km/h 75 % 0 mm 287 W/m2
18:50 -7.3 °C -9.8 °C 34740.4 hPa West 5.1 km/h 12.9 km/h 75 % 0 mm 301 W/m2
18:55 -7.2 °C -9.7 °C 34740.4 hPa Calm   12.9 km/h 75 % 0 mm 264 W/m2
19:00 -7.2 °C -9.7 °C 34740.4 hPa NW 5.1 km/h 12.9 km/h 75 % 0 mm 267 W/m2
19:05 -7.3 °C -9.6 °C 34740.4 hPa NW 5.1 km/h 12.9 km/h 77 % 0 mm 209 W/m2
19:10 -7.4 °C -9.7 °C 34740.4 hPa West 7.7 km/h 15.6 km/h 77 % 0 mm 213 W/m2
19:15 -7.6 °C -9.7 °C 34740.4 hPa West 2.6 km/h 15.6 km/h 78 % 0 mm 199 W/m2
19:20 -7.6 °C -9.7 °C 34740.4 hPa West 7.7 km/h 12.9 km/h 79 % 0 mm 186 W/m2
19:25 -7.7 °C -9.8 °C 34740.4 hPa West 10.3 km/h 12.9 km/h 79 % 0 mm 160 W/m2
19:30 -7.8 °C -9.8 °C 34740.4 hPa West 2.6 km/h 12.9 km/h 80 % 0 mm 160 W/m2
19:35 -7.9 °C -9.8 °C 34740.4 hPa Calm   12.9 km/h 80 % 0 mm 148 W/m2
19:40 -7.9 °C -9.8 °C 34740.4 hPa Calm   12.9 km/h 81 % 0 mm 132 W/m2
19:45 -7.9 °C -9.7 °C 34740.4 hPa West 2.6 km/h 10.3 km/h 81 % 0 mm 121 W/m2
19:50 -7.9 °C -9.8 °C 34740.4 hPa West 7.7 km/h 12.9 km/h 81 % 0 mm 105 W/m2
19:55 -8.1 °C -9.9 °C 34740.4 hPa Calm   12.9 km/h 81 % 0 mm 97 W/m2
20:00 -8.1 °C -9.8 °C 34740.4 hPa West 2.6 km/h 7.7 km/h 82 % 0 mm 91 W/m2
20:05 -8.1 °C -9.8 °C 34740.4 hPa West 7.7 km/h 7.7 km/h 82 % 0 mm 84 W/m2
20:10 -8.2 °C -9.8 °C 34740.4 hPa West 7.7 km/h 10.3 km/h 83 % 0 mm 76 W/m2
20:15 -8.2 °C -9.7 °C 34740.4 hPa Calm   10.3 km/h 84 % 0 mm 70 W/m2
20:20 -8.3 °C -9.8 °C 34740.4 hPa Calm   10.3 km/h 84 % 0 mm 67 W/m2
20:25 -8.3 °C -9.8 °C 34740.4 hPa Calm   2.6 km/h 84 % 0 mm 63 W/m2
20:30 -8.3 °C -9.8 °C 34740.4 hPa Calm   5.1 km/h 84 % 0 mm 62 W/m2
20:35 -8.3 °C -9.8 °C 34740.4 hPa Calm   5.1 km/h 84 % 0 mm 60 W/m2
20:40 -8.3 °C -9.8 °C 34740.4 hPa Calm   2.6 km/h 84 % 0 mm 56 W/m2
20:45 -8.4 °C -9.9 °C 34740.4 hPa Calm   7.7 km/h 84 % 0 mm 53 W/m2
20:50 -8.4 °C -9.9 °C 34740.4 hPa West 5.1 km/h 7.7 km/h 84 % 0 mm 47 W/m2
20:55 -8.4 °C -9.9 °C 34740.4 hPa Calm   7.7 km/h 84 % 0 mm 40 W/m2
21:00 -8.5 °C -9.9 °C 34740.4 hPa Calm   5.1 km/h 85 % 0 mm 33 W/m2
21:05 -8.7 °C -10 °C 34740.4 hPa Calm     86 % 0 mm 26 W/m2
21:10 -8.8 °C -10.1 °C 34740.4 hPa West 2.6 km/h 2.6 km/h 87 % 0 mm 21 W/m2
21:15 -8.8 °C -9.9 °C 34740.4 hPa Calm   2.6 km/h 88 % 0 mm 19 W/m2
21:20 -8.8 °C -9.9 °C 34740.4 hPa Calm   2.6 km/h 88 % 0 mm 18 W/m2
21:25 -8.8 °C -9.9 °C 34740.4 hPa Calm   2.6 km/h 88 % 0 mm 16 W/m2
21:30 -8.9 °C -10.1 °C 34740.4 hPa Calm   2.6 km/h 88 % 0 mm 14 W/m2
21:35 -9.1 °C -10.1 °C 34740.4 hPa Calm     89 % 0 mm 12 W/m2
21:40 -9.2 °C -10.1 °C 34740.4 hPa Calm     90 % 0 mm 5 W/m2
21:45 -9.3 °C -10.2 °C 34740.4 hPa Calm     91 % 0 mm 0 W/m2
21:50 -9.4 °C -10.3 °C 34740.4 hPa Calm     91 % 0 mm 0 W/m2
21:55 -9.5 °C -10.2 °C 34740.4 hPa Calm     92 % 0 mm 0 W/m2
22:00 -9.5 °C -10.2 °C 34740.4 hPa Calm     92 % 0 mm 0 W/m2
22:05 -9.6 °C -10.3 °C 34740.4 hPa Calm     92 % 0 mm 0 W/m2
22:10 -9.6 °C -10.3 °C 34740.4 hPa Calm     93 % 0 mm 0 W/m2
22:15 -9.7 °C -10.3 °C 34740.4 hPa Calm     93 % 0 mm 0 W/m2
22:25 -9.6 °C -10.1 °C 34740.4 hPa Calm   2.6 km/h 94 % 0 mm 0 W/m2
22:30 -9.5 °C -10.1 °C 34740.4 hPa Calm   2.6 km/h 93 % 0 mm 0 W/m2
22:35 -9.5 °C -10.1 °C 34740.4 hPa Calm     93 % 0 mm 0 W/m2
22:40 -9.6 °C -10.2 °C 34740.4 hPa Calm   2.6 km/h 93 % 0 mm 0 W/m2
22:45 -9.5 °C -10.1 °C 34750.5 hPa Calm   2.6 km/h 93 % 0 mm 0 W/m2
22:50 -9.4 °C -10.1 °C 34750.5 hPa Calm   2.6 km/h 93 % 0 mm 0 W/m2
22:55 -9.5 °C -10.2 °C 34750.5 hPa Calm     92 % 0 mm 0 W/m2
23:00 -9.6 °C -10.3 °C 34750.5 hPa Calm     92 % 0 mm 0 W/m2
23:10 -9.8 °C -10.3 °C 34750.5 hPa Calm     94 % 0 mm 0 W/m2
23:15 -9.8 °C -10.3 °C 34750.5 hPa Calm     94 % 0 mm 0 W/m2
23:20 -9.8 °C -10.4 °C 34750.5 hPa Calm     94 % 0 mm 0 W/m2
23:25 -9.9 °C -10.4 °C 34750.5 hPa Calm     94 % 0 mm 0 W/m2
23:30 -9.8 °C -10.4 °C 34750.5 hPa Calm     94 % 0 mm 0 W/m2
23:35 -9.9 °C -10.4 °C 34750.5 hPa Calm     94 % 0 mm 0 W/m2
23:40 -9.9 °C -10.3 °C 34750.5 hPa Calm     95 % 0 mm 0 W/m2
23:45 -9.9 °C -10.3 °C 34750.5 hPa Calm     95 % 0 mm 0 W/m2
23:50 -9.9 °C -10.3 °C 34750.5 hPa Calm     95 % 0 mm 0 W/m2
23:55 -9.8 °C -10.3 °C 34750.5 hPa Calm     95 % 0 mm 0 W/m2
Avec l'autorisation de Weather Underground - 1.5 mb